Etusivu
METAR-TAF:

METAR-TAF

Lentoasemat :

Shanghai-Pudong, Kiina

Shanghai Pudongin kansainvälinen lentoasema

Leveyspiiri: 31-07N, Pituuspiiri: 121-46E, korkeus merenpinnasta: 4 m

Tämänhetkinen sää

Tämä raportti tehtiin 39 minuuttia sitten, kello 04.00 UTC
Tuuli 12 kn etelästä/kaakosta, vaihdellen idän/kaakon ja etelän/lounaan välillä
Lämpötila 36°C
Kosteus 47%
Ilmanpaine 1005 hPa
Näkyvyys 10 km tai enemmän
ei pilviä alle 1500 m:ssä eikä cumulonimbus-pilviä

METAR: ZSPD 270400Z 16006MPS 110V200 CAVOK 36/23 Q1005 NOSIG

Aika: 12:39 (04:39 UTC)

Sääennuste

Tämä raportti tehtiin 7 tuntia ja 23 minuuttia sitten, kello 21.16 UTC
Ennuste voimassa 27. päivästä klo 00 UTC - 27. päivään klo 24 UTC
Tuuli 8 kn idästä/kaakosta
Näkyvyys: 6000 m
Hajanaisia pilviä 1600 ft:n korkeudessa

TAF: ZSPD 262116Z 2700/2724 11004MPS 6000 SCT016 TX36/2706Z TN28/2721Z

Säähavainnot ja -ennusteet yli 4000 lentoasemalta (METAR- ja TAF-raportit).

Käytössä olevat sääasemat on merkitty karttaan keltaisilla ja punaisilla pisteillä.

Aseta hiiri pisteen päälle nähdäksesi sääaseman nimen.

Klikkaa sitten nähdäksesi säähavainnot ja -ennusteet.

Kartan vaihtaminen: klikkaa mustalla rastilla varustettuja vihreitä pisteitä, niin voit zoomata sisään; viivalla varustettua vihreää pistettä, niin voit zoomata ulos tai vihreitä nuolia, niin pääset viereisille kartoille.


METAR-TAF: